WetterOnline ( https://www.wetteronline.ch )

Wetter aktuell Eifel (in 500m)

Aktuelles Wetter: Nürburg-Barweiler (488m)

6-stündlich | Neueste Meldungen
Ortszeit Temperatur Wetter
Mo, 05.12. 7:00 -0.6° C leichter Schneefall
Mo, 05.12. 1:00 -0.5° C gefrierender Regen
So, 04.12. 19:00 -1.2° C bedeckt
So, 04.12. 13:00 -1.5° C bedeckt
So, 04.12. 7:00 -2.4° C bedeckt
So, 04.12. 1:00 -1.4° C bedeckt
Sa, 03.12. 19:00 -1.0° C bewölkt
Sa, 03.12. 13:00 -1.3° C bedeckt
Ortszeit Temperatur Wetter
Mo, 05.12. 7:30 -0.8° C leichter Schneefall
Mo, 05.12. 7:20 -0.8° C leichter Schneefall
Mo, 05.12. 7:10 -0.8° C leichter Schneefall
Mo, 05.12. 7:00 -0.6° C leichter Schneefall
Mo, 05.12. 6:50 -0.6° C leichter Schneefall
Mo, 05.12. 6:40 -0.6° C leichter Schneefall
Mo, 05.12. 6:30 -0.5° C leichter Schneefall
Mo, 05.12. 6:00 -0.6° C Schneefall
Mo, 05.12. 5:30 -0.6° C leichter Schneefall
Mo, 05.12. 5:00 -0.6° C Schneefall
Mo, 05.12. 4:30 -0.6° C leichter Schneefall
Ortszeit Relative Feuchte Sichtweite
Mo, 05.12. 7:00 99% 0.5 km
Mo, 05.12. 1:00 99% 2.5 km
So, 04.12. 19:00 96% 4.5 km
So, 04.12. 13:00 96% 5.0 km
So, 04.12. 7:00 95% 7 km
So, 04.12. 1:00 93% 10 km
Sa, 03.12. 19:00 94% 8 km
Sa, 03.12. 13:00 95% 7 km
Ortszeit Relative Feuchte Sichtweite
Mo, 05.12. 7:30 98% 0.2 km
Mo, 05.12. 7:20 98% -
Mo, 05.12. 7:10 98% -
Mo, 05.12. 7:00 99% 0.5 km
Mo, 05.12. 6:50 99% -
Mo, 05.12. 6:40 98% -
Mo, 05.12. 6:30 96% 3.7 km
Mo, 05.12. 6:00 98% 1.6 km
Mo, 05.12. 5:30 97% 1.0 km
Mo, 05.12. 5:00 98% 3.0 km
Mo, 05.12. 4:30 99% 2.4 km
Ortszeit Niederschlagsmenge Niederschlagsart
Mo, 05.12. 7:00 12 l/m2 in 12 Std. Schnee, Regen
Mo, 05.12. 1:00 4 l/m2 in 6 Std. Schnee, Regen
So, 04.12. 19:00 0.0 l/m2 in 12 Std. -
So, 04.12. 13:00 0.0 l/m2 in 6 Std. -
So, 04.12. 7:00 0.0 l/m2 in 12 Std. -
So, 04.12. 1:00 0.0 l/m2 in 6 Std. -
Sa, 03.12. 19:00 0.0 l/m2 in 12 Std. -
Sa, 03.12. 13:00 0.0 l/m2 in 6 Std. -
Ortszeit Niederschlagsmenge Niederschlagsart
Mo, 05.12. 7:30 0.1 l/m2 in 30 Min -
Mo, 05.12. 7:20 keine Meldung -
Mo, 05.12. 7:10 keine Meldung -
Mo, 05.12. 7:00 0.7 l/m2 in 1 Std. Schnee, Regen
Mo, 05.12. 6:50 keine Meldung -
Mo, 05.12. 6:40 keine Meldung -
Mo, 05.12. 6:30 0.5 l/m2 in 30 Min -
Mo, 05.12. 6:00 1.2 l/m2 in 1 Std. Schnee
Mo, 05.12. 5:30 0.5 l/m2 in 30 Min -
Mo, 05.12. 5:00 0.9 l/m2 in 1 Std. Schnee
Mo, 05.12. 4:30 0.4 l/m2 in 30 Min -
Ortszeit Stärke Spitze Richtung
km/h Bft. km/h Grad Sektor
Mo, 05.12. 7:00 4 1 7 220° SW
Mo, 05.12. 1:00 4 1 18 350° N
So, 04.12. 19:00 13 3 24 60° NO
So, 04.12. 13:00 7 2 25 80° O
So, 04.12. 7:00 14 3 29 70° O
So, 04.12. 1:00 15 3 31 80° O
Sa, 03.12. 19:00 9 2 24 80° O
Sa, 03.12. 13:00 9 2 17 50° NO
Ortszeit Stärke Spitze Richtung
km/h Bft. km/h Grad Sektor
Mo, 05.12. 7:30 4 1 4 270° W
Mo, 05.12. 7:20 4 1 - 270° W
Mo, 05.12. 7:10 4 1 - 270° W
Mo, 05.12. 7:00 4 1 7 220° SW
Mo, 05.12. 6:50 4 1 - 220° SW
Mo, 05.12. 6:40 4 1 - 210° SW
Mo, 05.12. 6:30 4 1 4 110° O
Mo, 05.12. 6:00 4 1 4 80° O
Mo, 05.12. 5:30 4 1 4 30° NO
Mo, 05.12. 5:00 4 1 4 30° NO
Mo, 05.12. 4:30 4 1 4 80° O
Ortszeit Untergrenze Bedeckung Gattung
total tief tief mittel hoch
Mo, 05.12. 7:00 <30 m 8/8 0/8 - - -
Mo, 05.12. 1:00 30 m 8/8 8/8 - - -
So, 04.12. 19:00 60 m 8/8 8/8 - - -
So, 04.12. 13:00 90 m 8/8 8/8 - - -
So, 04.12. 7:00 90 m 8/8 8/8 - - -
So, 04.12. 1:00 150 m 8/8 8/8 - - -
Sa, 03.12. 19:00 150 m 7/8 7/8 - - -
Sa, 03.12. 13:00 90 m 8/8 8/8 - - -
Ortszeit Bedeckungsgrad in Achtel und Wolkenuntergrenze
Mo, 05.12. 7:30 8(<30m)
Mo, 05.12. 7:20 8(<30m)
Mo, 05.12. 7:10 8
Mo, 05.12. 7:00 7(<30m) 8(690m)
Mo, 05.12. 6:50 7(<30m) 8(690m)
Mo, 05.12. 6:40 7
Mo, 05.12. 6:30 1(90m) 5(570m) 8(720m)
Mo, 05.12. 6:00 3(<30m) 7(540m) 7(690m)
Mo, 05.12. 5:30 6(<30m) 7(750m)
Mo, 05.12. 5:00 2(<30m) 7(750m)
Mo, 05.12. 4:30 6(<30m) 7(420m) 7(720m)
Ortszeit Luftdruck NN (hPa) Tendenz (hPa in 3 Std.)
Mo, 05.12. 7:00 1018 + 0,9
Mo, 05.12. 1:00 1016 + 0,3
So, 04.12. 19:00 1016 + 0,5
So, 04.12. 13:00 1016 - 0,3
So, 04.12. 7:00 1017 - 0,2
So, 04.12. 1:00 1017 - 0,6
Sa, 03.12. 19:00 1018 - 0,2
Sa, 03.12. 13:00 1020 - 1,1
Ortszeit Luftdruck NN (hPa) Tendenz (hPa in 3 Std.)
Mo, 05.12. 7:30 1018 + 1,0
Mo, 05.12. 7:20 1018 keine Meldung
Mo, 05.12. 7:10 1018 keine Meldung
Mo, 05.12. 7:00 1018 + 0,9
Mo, 05.12. 6:50 1018 keine Meldung
Mo, 05.12. 6:40 1018 keine Meldung
Mo, 05.12. 6:30 1018 + 0,6
Mo, 05.12. 6:00 1017 + 0,4
Mo, 05.12. 5:30 1017 + 0,5
Mo, 05.12. 5:00 1017 + 0,5
Mo, 05.12. 4:30 1017 + 0,3
Ortszeit Schneehöhe (cm)
Mo, 05.12. 7:00 6
Mo, 05.12. 1:00 0
So, 04.12. 19:00 0
So, 04.12. 13:00 0
So, 04.12. 7:00 0
So, 04.12. 1:00 0
Sa, 03.12. 19:00 0
Sa, 03.12. 13:00 0
Ortszeit Schneehöhe (cm)
Mo, 05.12. 7:30 6
Mo, 05.12. 7:20 6
Mo, 05.12. 7:10 6
Mo, 05.12. 7:00 6
Mo, 05.12. 6:50 6
Mo, 05.12. 6:40 6
Mo, 05.12. 6:30 6
Mo, 05.12. 6:00 5
Mo, 05.12. 5:30 5
Mo, 05.12. 5:00 5
Mo, 05.12. 4:30 4
Link zu dieser Seite / Seite empfehlen

Das Wetter in ...